Edgeworth, Pennsylvania
Current Conditions -  °F | °C
As of 6:51 AM on Friday 26 Dec 2014 (Local Time) from KPIT Reporting Station
Scattered Clouds Scattered Clouds  
Wind Chill: 30°   Ceiling: Unl
Heat Index: 30°   Visibility: 10mi
Dew Point: 27°   Wind: 0mph
Humidity: 88%   Direction: NA
Pressure: 30.25"   Gusts: NA
Location:  40.5741°N, 80.1457°W
Report Text: KPIT 261151Z 00000KT 10SM FEW023 SCT070 M01/M03 A3025 RMK AO2 SLP263 T10111028 10028 21011 50010
Loading
Personal Weather Stations






























Interactive Weather Map New forecast layout! Learn more

10-Day Weather Forecast

Advertisements
Track Severe Weather on mobile